createdAt,value
2022-12-17T00:00:44.535Z,20.30
2022-12-17T00:02:07.280Z,21.42
2022-12-17T00:03:30.134Z,20.88
2022-12-17T00:04:51.214Z,19.27
2022-12-17T00:06:12.992Z,21.20
2022-12-17T00:07:36.644Z,21.65
2022-12-17T00:08:57.850Z,21.40
2022-12-17T00:10:18.643Z,20.90
2022-12-17T00:11:41.944Z,20.30
2022-12-17T00:13:05.421Z,20.40
2022-12-17T00:14:26.227Z,21.33
2022-12-17T00:15:47.111Z,20.55
2022-12-17T00:17:07.808Z,21.38
2022-12-17T00:18:48.879Z,20.85
2022-12-17T00:20:09.710Z,20.67
2022-12-17T00:21:31.117Z,20.80
2022-12-17T00:22:51.857Z,20.87
2022-12-17T00:24:16.470Z,20.50
2022-12-17T00:25:44.613Z,22.13
2022-12-17T00:27:05.241Z,20.60
2022-12-17T00:28:30.165Z,20.35
2022-12-17T00:29:50.801Z,20.80
2022-12-17T00:31:12.681Z,21.73
2022-12-17T00:32:33.627Z,21.23
2022-12-17T00:33:54.849Z,21.07
2022-12-17T00:35:19.553Z,21.10
2022-12-17T00:36:40.708Z,21.50
2022-12-17T00:38:07.181Z,20.83
2022-12-17T00:39:30.873Z,21.38
2022-12-17T00:40:51.909Z,20.80
2022-12-17T00:42:15.689Z,20.90
2022-12-17T00:43:40.238Z,21.55
2022-12-17T00:45:10.054Z,21.60
2022-12-17T00:46:31.034Z,21.63
2022-12-17T00:47:53.093Z,21.33
2022-12-17T00:49:14.746Z,20.92
2022-12-17T00:50:35.921Z,21.23
2022-12-17T00:51:57.110Z,21.00
2022-12-17T00:53:17.817Z,21.27
2022-12-17T00:54:38.760Z,22.08
2022-12-17T00:55:59.336Z,20.40
2022-12-17T00:57:28.442Z,22.48
2022-12-17T00:58:49.170Z,20.58
2022-12-17T01:00:10.922Z,22.85
2022-12-17T01:01:33.367Z,21.60
2022-12-17T01:02:55.064Z,21.20
2022-12-17T01:04:17.313Z,21.63
2022-12-17T01:05:41.242Z,21.73
2022-12-17T01:07:02.636Z,21.40
2022-12-17T01:08:28.564Z,21.93
2022-12-17T01:09:49.144Z,21.33
2022-12-17T01:11:09.731Z,21.65
2022-12-17T01:12:34.152Z,21.45
2022-12-17T01:13:55.036Z,22.03
2022-12-17T01:15:17.396Z,21.95
2022-12-17T01:16:38.325Z,21.08
2022-12-17T01:17:58.989Z,21.57
2022-12-17T01:19:19.882Z,22.08
2022-12-17T01:20:40.721Z,22.50
2022-12-17T01:22:04.247Z,21.37
2022-12-17T01:23:29.114Z,22.30
2022-12-17T01:24:50.971Z,22.45
2022-12-17T01:26:14.638Z,21.25
2022-12-17T01:27:36.131Z,22.58
2022-12-17T01:28:59.134Z,22.70
2022-12-17T01:30:23.542Z,22.48
2022-12-17T01:31:44.819Z,21.23
2022-12-17T01:33:05.813Z,21.02
2022-12-17T01:34:26.813Z,23.65
2022-12-17T01:35:47.493Z,21.13
2022-12-17T01:37:08.346Z,22.10
2022-12-17T01:38:31.689Z,22.40
2022-12-17T01:39:52.523Z,22.15
2022-12-17T01:41:15.564Z,21.45
2022-12-17T01:42:36.567Z,21.53
2022-12-17T01:43:57.917Z,21.20
2022-12-17T01:45:19.049Z,21.60
2022-12-17T01:46:48.839Z,21.77
2022-12-17T01:48:14.806Z,21.37
2022-12-17T01:49:40.322Z,21.27
2022-12-17T01:51:05.536Z,22.10
2022-12-17T01:52:44.318Z,21.67
2022-12-17T01:54:11.962Z,22.37
2022-12-17T01:55:36.142Z,21.58
2022-12-17T01:57:01.203Z,21.53
2022-12-17T01:58:22.855Z,22.05
2022-12-17T02:00:14.707Z,22.15
2022-12-17T02:01:36.785Z,20.63
2022-12-17T02:03:01.368Z,21.60
2022-12-17T02:04:27.153Z,21.98
2022-12-17T02:06:12.747Z,22.58
2022-12-17T02:08:10.091Z,22.83
2022-12-17T02:09:58.009Z,20.30
2022-12-17T02:11:24.914Z,21.57
2022-12-17T02:13:20.588Z,21.65
2022-12-17T02:15:00.209Z,20.45
2022-12-17T02:16:40.485Z,21.37
2022-12-17T02:18:08.402Z,21.77
2022-12-17T02:20:07.721Z,22.33
2022-12-17T02:21:32.421Z,21.27
2022-12-17T02:23:33.269Z,21.17
2022-12-17T02:25:22.096Z,21.85
2022-12-17T02:27:05.470Z,21.77
2022-12-17T02:28:26.827Z,22.60
2022-12-17T02:29:56.566Z,22.92
2022-12-17T02:31:17.578Z,21.90
2022-12-17T02:32:39.359Z,21.95
2022-12-17T02:34:01.136Z,23.03
2022-12-17T02:35:33.250Z,22.10
2022-12-17T02:37:01.995Z,22.38
2022-12-17T02:38:41.115Z,22.25
2022-12-17T02:40:02.192Z,21.90
2022-12-17T02:41:26.768Z,22.45
2022-12-17T02:42:53.061Z,22.38
2022-12-17T02:44:19.103Z,22.80
2022-12-17T02:45:40.658Z,21.95
2022-12-17T02:47:02.257Z,22.43
2022-12-17T02:48:26.000Z,21.02
2022-12-17T02:49:49.100Z,22.05
2022-12-17T02:51:10.309Z,22.65
2022-12-17T02:52:35.056Z,21.50
2022-12-17T02:54:08.201Z,22.53
2022-12-17T02:55:32.424Z,22.38
2022-12-17T02:56:53.536Z,23.13
2022-12-17T02:58:16.077Z,23.15
2022-12-17T02:59:37.058Z,23.38
2022-12-17T03:01:05.293Z,22.27
2022-12-17T03:02:26.561Z,22.20
2022-12-17T03:03:50.278Z,22.52
2022-12-17T03:05:42.726Z,23.15
2022-12-17T03:06:53.018Z,22.50
2022-12-17T03:08:15.132Z,22.75
2022-12-17T03:09:36.118Z,23.05
2022-12-17T03:10:57.098Z,21.20
2022-12-17T03:12:17.997Z,22.20
2022-12-17T03:13:47.206Z,22.50
2022-12-17T03:15:07.997Z,21.93
2022-12-17T03:16:37.747Z,22.80
2022-12-17T03:17:59.153Z,22.23
2022-12-17T03:19:21.086Z,23.13
2022-12-17T03:20:41.629Z,22.67
2022-12-17T03:22:02.896Z,22.73
2022-12-17T03:23:45.106Z,22.67
2022-12-17T03:25:08.764Z,21.87
2022-12-17T03:26:31.089Z,22.30
2022-12-17T03:27:51.764Z,22.02
2022-12-17T03:29:12.438Z,22.00
2022-12-17T03:30:36.201Z,22.37
2022-12-17T03:31:58.250Z,22.47
2022-12-17T03:33:19.191Z,23.15
2022-12-17T03:34:42.902Z,23.42
2022-12-17T03:36:03.778Z,22.50
2022-12-17T03:37:25.210Z,21.98
2022-12-17T03:38:45.813Z,22.93
2022-12-17T03:40:06.304Z,22.40
2022-12-17T03:41:37.409Z,22.30
2022-12-17T03:42:58.129Z,22.00
2022-12-17T03:44:21.584Z,22.55
2022-12-17T03:45:45.471Z,22.45
2022-12-17T03:47:15.591Z,22.33
2022-12-17T03:48:36.182Z,22.47
2022-12-17T03:49:56.740Z,22.80
2022-12-17T03:51:20.489Z,22.40
2022-12-17T03:52:41.120Z,22.17
2022-12-17T03:54:02.056Z,21.77
2022-12-17T03:55:23.150Z,22.43
2022-12-17T03:56:49.068Z,22.33
2022-12-17T03:58:10.085Z,22.50
2022-12-17T03:59:31.447Z,22.70
2022-12-17T04:00:52.048Z,22.23
2022-12-17T04:02:16.057Z,21.33
2022-12-17T04:03:40.666Z,22.75
2022-12-17T04:05:01.845Z,22.00
2022-12-17T04:06:23.178Z,22.30
2022-12-17T04:07:44.396Z,21.88
2022-12-17T04:09:05.384Z,21.70
2022-12-17T04:10:26.622Z,22.08
2022-12-17T04:11:50.665Z,22.20
2022-12-17T04:13:16.897Z,21.90
2022-12-17T04:14:37.844Z,21.17
2022-12-17T04:15:58.743Z,22.80
2022-12-17T04:17:19.381Z,22.50
2022-12-17T04:18:40.475Z,21.20
2022-12-17T04:20:01.457Z,22.10
2022-12-17T04:21:23.121Z,22.63
2022-12-17T04:22:43.843Z,22.65
2022-12-17T04:24:04.452Z,22.17
2022-12-17T04:25:25.470Z,23.17
2022-12-17T04:26:48.056Z,22.17
2022-12-17T04:28:08.697Z,22.00
2022-12-17T04:29:30.097Z,22.73
2022-12-17T04:30:50.737Z,21.60
2022-12-17T04:32:11.678Z,22.00
2022-12-17T04:33:32.532Z,22.25
2022-12-17T04:34:53.585Z,22.97
2022-12-17T04:36:14.364Z,22.37
2022-12-17T04:37:34.915Z,22.50
2022-12-17T04:38:55.732Z,22.07
2022-12-17T04:40:16.373Z,22.40
2022-12-17T04:41:40.413Z,22.70
2022-12-17T04:43:00.945Z,21.57
2022-12-17T04:44:22.004Z,22.65
2022-12-17T04:45:45.056Z,23.13
2022-12-17T04:47:08.708Z,21.83
2022-12-17T04:48:29.399Z,22.00
2022-12-17T04:49:52.967Z,22.52
2022-12-17T04:51:15.082Z,21.43
2022-12-17T04:52:38.007Z,22.83
2022-12-17T04:54:04.314Z,22.43
2022-12-17T04:55:31.140Z,22.27
2022-12-17T04:56:51.811Z,21.75
2022-12-17T04:58:12.442Z,21.53
2022-12-17T04:59:33.043Z,22.80
2022-12-17T05:00:53.726Z,22.42
2022-12-17T05:02:14.899Z,22.27
2022-12-17T05:03:39.289Z,22.55
2022-12-17T05:05:00.492Z,22.77
2022-12-17T05:06:22.301Z,22.80
2022-12-17T05:07:42.991Z,22.57
2022-12-17T05:09:03.869Z,22.27
2022-12-17T05:10:25.468Z,21.92
2022-12-17T05:11:46.293Z,22.47
2022-12-17T05:13:06.947Z,22.60
2022-12-17T05:14:28.166Z,21.80
2022-12-17T05:16:08.727Z,21.98
2022-12-17T05:17:32.389Z,22.50
2022-12-17T05:18:53.255Z,21.92
2022-12-17T05:20:13.977Z,22.37
2022-12-17T05:21:34.755Z,21.73
2022-12-17T05:22:55.639Z,22.50
2022-12-17T05:24:16.277Z,23.27
2022-12-17T05:25:37.249Z,22.30
2022-12-17T05:27:00.345Z,22.15
2022-12-17T05:28:20.913Z,23.73
2022-12-17T05:29:41.997Z,22.47
2022-12-17T05:31:11.106Z,22.97
2022-12-17T05:32:31.798Z,23.80
2022-12-17T05:33:52.523Z,23.27
2022-12-17T05:35:13.183Z,23.02
2022-12-17T05:36:36.895Z,22.42
2022-12-17T05:38:03.486Z,22.77
2022-12-17T05:39:24.193Z,22.77
2022-12-17T05:40:50.976Z,23.57
2022-12-17T05:42:11.735Z,21.67
2022-12-17T05:43:35.745Z,23.03
2022-12-17T05:44:56.741Z,22.20
2022-12-17T05:46:21.431Z,22.73
2022-12-17T05:47:42.742Z,22.80
2022-12-17T05:49:03.524Z,22.23
2022-12-17T05:50:24.747Z,23.47
2022-12-17T05:51:45.876Z,22.43
2022-12-17T05:53:06.414Z,21.53
2022-12-17T05:54:27.516Z,22.97
2022-12-17T05:55:48.329Z,22.07
2022-12-17T05:57:09.056Z,22.77
2022-12-17T05:58:34.052Z,21.73
2022-12-17T06:00:03.343Z,23.00
2022-12-17T06:01:33.133Z,21.80
2022-12-17T06:02:53.886Z,22.93
2022-12-17T06:04:14.713Z,21.97
2022-12-17T06:05:35.813Z,23.20
2022-12-17T06:06:56.563Z,21.60
2022-12-17T06:08:25.516Z,23.20
2022-12-17T06:09:46.147Z,22.43
2022-12-17T06:11:06.922Z,22.93
2022-12-17T06:12:27.865Z,22.67
2022-12-17T06:13:48.879Z,22.07
2022-12-17T06:15:11.078Z,21.77
2022-12-17T06:16:31.706Z,22.67
2022-12-17T06:17:52.285Z,21.83
2022-12-17T06:19:12.917Z,22.17
2022-12-17T06:20:34.764Z,22.53
2022-12-17T06:21:55.911Z,22.37
2022-12-17T06:23:19.952Z,21.80
2022-12-17T06:24:45.751Z,22.83
2022-12-17T06:26:07.205Z,22.40
2022-12-17T06:27:32.240Z,23.03
2022-12-17T06:28:52.838Z,22.57
2022-12-17T06:30:18.467Z,23.10
2022-12-17T06:31:41.131Z,22.73
2022-12-17T06:33:12.855Z,22.50
2022-12-17T06:34:36.678Z,22.40
2022-12-17T06:36:05.169Z,22.47
2022-12-17T06:37:25.939Z,22.47
2022-12-17T06:38:46.553Z,23.27
2022-12-17T06:40:10.396Z,22.60
2022-12-17T06:41:31.171Z,22.30
2022-12-17T06:42:53.094Z,23.00
2022-12-17T06:44:14.084Z,22.83
2022-12-17T06:45:35.269Z,22.70
2022-12-17T06:46:55.881Z,23.73
2022-12-17T06:48:23.708Z,23.13
2022-12-17T06:49:44.403Z,23.57
2022-12-17T06:51:05.429Z,22.63
2022-12-17T06:52:28.653Z,22.80
2022-12-17T06:53:49.652Z,23.03
2022-12-17T06:55:10.438Z,23.73
2022-12-17T06:56:34.139Z,23.63
2022-12-17T06:57:55.026Z,22.47
2022-12-17T06:59:24.300Z,22.87
2022-12-17T07:00:44.990Z,23.77
2022-12-17T07:02:05.794Z,21.67
2022-12-17T07:03:30.266Z,23.63
2022-12-17T07:04:51.271Z,22.97
2022-12-17T07:06:12.953Z,23.87
2022-12-17T07:07:33.870Z,22.57
2022-12-17T07:08:54.409Z,23.70
2022-12-17T07:10:14.981Z,23.43
2022-12-17T07:11:35.816Z,23.37
2022-12-17T07:12:57.033Z,25.03
2022-12-17T07:14:17.900Z,23.73
2022-12-17T07:15:38.451Z,24.27
2022-12-17T07:16:59.294Z,23.73
2022-12-17T07:18:22.689Z,23.30
2022-12-17T07:19:43.661Z,24.40
2022-12-17T07:21:05.123Z,23.37
2022-12-17T07:22:26.049Z,23.93
2022-12-17T07:23:47.178Z,24.87
2022-12-17T07:25:08.019Z,25.30
2022-12-17T07:26:28.744Z,25.83
2022-12-17T07:27:49.525Z,22.57
2022-12-17T07:29:10.394Z,23.90
2022-12-17T07:30:31.474Z,24.10
2022-12-17T07:31:55.358Z,24.30
2022-12-17T07:33:24.807Z,24.27
2022-12-17T07:34:46.461Z,25.03
2022-12-17T07:36:07.472Z,24.70
2022-12-17T07:37:30.680Z,24.73
2022-12-17T07:38:52.085Z,25.10
2022-12-17T07:40:12.936Z,25.73
2022-12-17T07:41:33.568Z,24.53
2022-12-17T07:42:57.883Z,26.90
2022-12-17T07:44:18.744Z,26.47
2022-12-17T07:45:39.799Z,26.07
2022-12-17T07:47:03.992Z,27.80
2022-12-17T07:48:24.792Z,28.20
2022-12-17T07:49:47.556Z,26.37
2022-12-17T07:51:09.256Z,28.87
2022-12-17T07:52:32.240Z,28.77
2022-12-17T07:53:56.412Z,28.70
2022-12-17T07:55:18.471Z,30.10
2022-12-17T07:56:40.109Z,29.17
2022-12-17T07:58:04.064Z,29.03
2022-12-17T07:59:25.363Z,29.20
2022-12-17T08:00:49.381Z,29.03
2022-12-17T08:02:10.721Z,30.43
2022-12-17T08:03:35.288Z,28.87
2022-12-17T08:04:56.366Z,29.07
2022-12-17T08:06:17.966Z,31.73
2022-12-17T08:07:38.736Z,29.10
2022-12-17T08:09:00.054Z,30.90
2022-12-17T08:10:23.759Z,29.90
2022-12-17T08:11:44.353Z,30.77
2022-12-17T08:13:20.368Z,30.60
2022-12-17T08:14:41.077Z,30.73
2022-12-17T08:16:01.935Z,31.23
2022-12-17T08:17:23.087Z,31.77
2022-12-17T08:18:43.978Z,31.80
2022-12-17T08:20:04.804Z,31.33
2022-12-17T08:21:25.853Z,31.70
2022-12-17T08:22:46.706Z,29.93
2022-12-17T08:24:07.523Z,31.10
2022-12-17T08:25:28.635Z,31.63
2022-12-17T08:26:52.348Z,30.57
2022-12-17T08:28:49.017Z,30.27
2022-12-17T08:30:01.957Z,30.20
2022-12-17T08:31:23.116Z,29.93
2022-12-17T08:32:44.546Z,30.37
2022-12-17T08:34:08.284Z,30.37
2022-12-17T08:35:43.033Z,29.47
2022-12-17T08:37:04.151Z,28.97
2022-12-17T08:38:39.490Z,29.10
2022-12-17T08:40:00.376Z,28.83
2022-12-17T08:41:21.217Z,27.83
2022-12-17T08:42:44.802Z,28.73
2022-12-17T08:44:05.585Z,29.53
2022-12-17T08:45:40.379Z,28.03
2022-12-17T08:47:01.148Z,27.67
2022-12-17T08:48:24.248Z,27.67
2022-12-17T08:49:44.889Z,29.63
2022-12-17T08:51:05.795Z,28.13
2022-12-17T08:52:27.040Z,29.43
2022-12-17T08:53:50.687Z,27.33
2022-12-17T08:55:11.626Z,29.07
2022-12-17T08:56:32.236Z,28.87
2022-12-17T08:57:59.138Z,28.40
2022-12-17T08:59:20.848Z,28.43
2022-12-17T09:00:41.600Z,28.93
2022-12-17T09:02:02.695Z,29.60
2022-12-17T09:03:23.740Z,28.83
2022-12-17T09:04:44.752Z,29.80
2022-12-17T09:06:09.074Z,29.13
2022-12-17T09:07:30.305Z,29.03
2022-12-17T09:08:51.512Z,29.70
2022-12-17T09:10:12.244Z,29.87
2022-12-17T09:11:33.352Z,30.43
2022-12-17T09:12:53.961Z,30.77
2022-12-17T09:14:15.037Z,30.37
2022-12-17T09:15:35.664Z,30.63
2022-12-17T09:17:05.382Z,30.80
2022-12-17T09:18:26.255Z,31.53
2022-12-17T09:19:47.391Z,31.27
2022-12-17T09:21:14.576Z,31.07
2022-12-17T09:22:37.102Z,29.57
2022-12-17T09:23:58.267Z,31.90
2022-12-17T09:25:19.188Z,32.30
2022-12-17T09:26:40.117Z,31.73
2022-12-17T09:28:03.943Z,33.13
2022-12-17T09:29:24.565Z,32.57
2022-12-17T09:30:45.199Z,33.60
2022-12-17T09:32:08.409Z,32.23
2022-12-17T09:33:36.965Z,31.57
2022-12-17T09:35:15.276Z,32.57
2022-12-17T09:36:36.524Z,32.27
2022-12-17T09:37:59.045Z,31.30
2022-12-17T09:39:22.911Z,31.83
2022-12-17T09:40:45.682Z,31.50
2022-12-17T09:42:20.438Z,29.77
2022-12-17T09:43:47.955Z,29.63
2022-12-17T09:45:27.007Z,29.17
2022-12-17T09:47:10.954Z,29.23
2022-12-17T09:49:04.333Z,29.17
2022-12-17T09:50:31.025Z,28.13
2022-12-17T09:51:53.128Z,26.83
2022-12-17T09:53:16.609Z,26.43
2022-12-17T09:55:18.052Z,25.20
2022-12-17T09:56:42.264Z,22.53
2022-12-17T09:58:05.792Z,21.47
2022-12-17T09:59:57.042Z,22.03
2022-12-17T10:01:17.788Z,21.70
2022-12-17T10:02:39.768Z,23.00
2022-12-17T10:04:04.620Z,22.67
2022-12-17T10:05:37.195Z,23.87
2022-12-17T10:07:00.368Z,23.13
2022-12-17T10:08:24.667Z,24.60
2022-12-17T10:09:47.365Z,22.93
2022-12-17T10:11:11.926Z,24.80
2022-12-17T10:12:35.662Z,24.97
2022-12-17T10:13:56.329Z,25.50
2022-12-17T10:15:17.337Z,24.80
2022-12-17T10:16:56.872Z,25.63
2022-12-17T10:18:29.451Z,25.13
2022-12-17T10:19:58.065Z,25.47
2022-12-17T10:21:25.678Z,24.63
2022-12-17T10:22:46.737Z,26.13
2022-12-17T10:24:07.665Z,26.77
2022-12-17T10:25:35.541Z,26.73
2022-12-17T10:27:07.141Z,27.07
2022-12-17T10:28:38.832Z,26.93
2022-12-17T10:30:02.915Z,28.00
2022-12-17T10:31:39.363Z,27.80
2022-12-17T10:33:02.850Z,27.43
2022-12-17T10:34:41.778Z,26.57
2022-12-17T10:36:02.380Z,27.33
2022-12-17T10:37:41.823Z,27.50
2022-12-17T10:39:02.524Z,27.87
2022-12-17T10:40:36.145Z,27.57
2022-12-17T10:42:00.509Z,28.00
2022-12-17T10:43:21.394Z,28.30
2022-12-17T10:44:49.646Z,29.03
2022-12-17T10:46:16.817Z,27.40
2022-12-17T10:47:38.629Z,28.30
2022-12-17T10:48:59.361Z,28.80
2022-12-17T10:50:32.979Z,28.40
2022-12-17T10:51:55.714Z,28.53
2022-12-17T10:53:16.948Z,29.40
2022-12-17T10:54:53.608Z,29.43
2022-12-17T10:56:16.104Z,29.47
2022-12-17T10:57:49.319Z,29.27
2022-12-17T10:59:12.982Z,29.77
2022-12-17T11:00:47.335Z,29.37
2022-12-17T11:02:19.592Z,29.67
2022-12-17T11:04:00.700Z,30.33
2022-12-17T11:05:22.694Z,30.07
2022-12-17T11:06:50.062Z,30.63
2022-12-17T11:08:10.951Z,30.40
2022-12-17T11:09:48.592Z,30.53
2022-12-17T11:11:09.078Z,29.33
2022-12-17T11:12:31.997Z,31.43
2022-12-17T11:14:01.067Z,31.33
2022-12-17T11:15:35.070Z,31.70
2022-12-17T11:17:05.369Z,31.03
2022-12-17T11:18:31.176Z,31.23
2022-12-17T11:20:05.050Z,31.07
2022-12-17T11:21:50.145Z,31.40
2022-12-17T11:23:17.226Z,31.70
2022-12-17T11:24:50.030Z,32.13
2022-12-17T11:26:29.004Z,31.37
2022-12-17T11:28:00.157Z,32.50
2022-12-17T11:29:24.621Z,32.50
2022-12-17T11:30:47.457Z,31.97
2022-12-17T11:32:17.337Z,32.57
2022-12-17T11:33:47.729Z,33.03
2022-12-17T11:35:22.503Z,32.17
2022-12-17T11:36:52.269Z,31.83
2022-12-17T11:38:41.777Z,30.93
2022-12-17T11:40:18.146Z,30.27
2022-12-17T11:41:48.954Z,29.47
2022-12-17T11:43:14.528Z,29.70
2022-12-17T11:44:45.054Z,29.20
2022-12-17T11:46:34.933Z,27.87
2022-12-17T11:48:14.874Z,27.90
2022-12-17T11:49:55.422Z,27.93
2022-12-17T11:51:42.345Z,27.53
2022-12-17T11:53:16.238Z,27.87
2022-12-17T11:54:47.757Z,27.10
2022-12-17T11:56:38.035Z,27.43
2022-12-17T11:58:09.127Z,27.83
2022-12-17T11:59:42.119Z,27.57
2022-12-17T12:01:13.274Z,26.70
2022-12-17T12:03:08.769Z,26.57
2022-12-17T12:04:41.819Z,26.93
2022-12-17T12:06:18.582Z,26.77
2022-12-17T12:07:46.024Z,28.67
2022-12-17T12:09:34.858Z,26.37
2022-12-17T12:11:14.882Z,26.90
2022-12-17T12:12:41.781Z,26.83
2022-12-17T12:14:05.536Z,26.97
2022-12-17T12:15:41.125Z,26.20
2022-12-17T12:17:19.716Z,27.33
2022-12-17T12:19:03.669Z,25.53
2022-12-17T12:20:58.855Z,24.13
2022-12-17T12:22:56.778Z,23.93
2022-12-17T12:24:39.214Z,25.20
2022-12-17T12:26:26.708Z,24.07
2022-12-17T12:28:26.381Z,23.27
2022-12-17T12:30:34.519Z,23.97
2022-12-17T12:32:03.191Z,23.17
2022-12-17T12:33:50.898Z,23.70
2022-12-17T12:35:16.551Z,22.47
2022-12-17T12:36:41.104Z,23.07
2022-12-17T12:38:02.449Z,22.93
2022-12-17T12:39:28.564Z,23.40
2022-12-17T12:41:12.077Z,21.17
2022-12-17T12:42:51.305Z,22.50
2022-12-17T12:44:30.677Z,21.73
2022-12-17T12:46:16.806Z,21.43
2022-12-17T12:47:48.847Z,22.07
2022-12-17T12:49:36.013Z,22.50
2022-12-17T12:51:12.278Z,20.87
2022-12-17T12:52:40.759Z,21.50
2022-12-17T12:54:01.526Z,21.37
2022-12-17T12:55:22.473Z,21.30
2022-12-17T12:56:48.226Z,21.37
2022-12-17T12:58:22.736Z,21.63
2022-12-17T12:59:47.470Z,22.20
2022-12-17T13:01:08.542Z,22.77
2022-12-17T13:03:52.197Z,22.53
2022-12-17T13:05:13.198Z,22.17
2022-12-17T13:06:46.201Z,22.53
2022-12-17T13:07:48.739Z,22.63
2022-12-17T13:08:51.221Z,21.83
2022-12-17T13:09:57.527Z,21.33
2022-12-17T13:11:11.563Z,22.07
2022-12-17T13:12:47.459Z,20.90
2022-12-17T13:13:56.252Z,20.33
2022-12-17T13:15:07.534Z,20.90
2022-12-17T13:16:50.542Z,22.00
2022-12-17T13:18:15.226Z,19.10
2022-12-17T13:19:38.358Z,19.60
2022-12-17T13:20:41.393Z,17.23
2022-12-17T13:21:44.032Z,19.07
2022-12-17T13:23:08.438Z,19.30
2022-12-17T13:24:26.770Z,18.90
2022-12-17T13:25:29.113Z,19.97
2022-12-17T13:26:44.148Z,19.67
2022-12-17T13:27:47.247Z,19.47
2022-12-17T13:28:52.357Z,19.40
2022-12-17T13:30:11.238Z,20.60
2022-12-17T13:31:19.739Z,19.30
2022-12-17T13:32:38.649Z,19.40
2022-12-17T13:34:02.230Z,18.13
2022-12-17T13:35:39.917Z,18.07
2022-12-17T13:36:51.958Z,17.60
2022-12-17T13:38:27.135Z,16.93
2022-12-17T13:39:45.150Z,17.10
2022-12-17T13:40:59.587Z,16.97
2022-12-17T13:42:02.556Z,16.53
2022-12-17T13:43:04.876Z,17.00
2022-12-17T13:44:25.523Z,17.37
2022-12-17T13:45:36.579Z,16.73
2022-12-17T13:46:47.352Z,17.37
2022-12-17T13:47:58.127Z,17.07
2022-12-17T13:49:03.554Z,18.03
2022-12-17T13:50:35.897Z,17.13
2022-12-17T13:51:38.805Z,18.47
2022-12-17T13:52:41.051Z,17.90
2022-12-17T13:53:53.051Z,19.03
2022-12-17T13:55:09.524Z,17.20
2022-12-17T13:56:13.106Z,17.20
2022-12-17T13:57:24.793Z,16.57
2022-12-17T13:58:30.337Z,16.30
2022-12-17T13:59:32.701Z,16.20
2022-12-17T14:00:35.070Z,16.33
2022-12-17T14:01:49.193Z,16.30
2022-12-17T14:02:52.960Z,15.87
2022-12-17T14:04:07.228Z,15.70
2022-12-17T14:05:25.023Z,15.43
2022-12-17T14:06:33.161Z,15.53
2022-12-17T14:07:39.285Z,16.03
2022-12-17T14:08:42.500Z,15.97
2022-12-17T14:09:44.955Z,16.13
2022-12-17T14:11:13.610Z,17.00
2022-12-17T14:12:23.790Z,15.73
2022-12-17T14:13:26.062Z,15.50
2022-12-17T14:14:39.379Z,16.13
2022-12-17T14:15:51.431Z,15.13
2022-12-17T14:16:55.212Z,15.53
2022-12-17T14:17:59.342Z,15.87
2022-12-17T14:19:01.726Z,14.93
2022-12-17T14:20:13.115Z,17.10
2022-12-17T14:21:15.650Z,17.97
2022-12-17T14:22:31.734Z,18.30
2022-12-17T14:23:34.286Z,19.03
2022-12-17T14:24:36.640Z,18.83
2022-12-17T14:25:41.104Z,20.30
2022-12-17T14:27:00.091Z,18.83
2022-12-17T14:28:08.623Z,18.97
2022-12-17T14:29:14.513Z,19.37
2022-12-17T14:30:36.121Z,18.90
2022-12-17T14:31:38.446Z,19.20
2022-12-17T14:32:43.972Z,18.40
2022-12-17T14:33:47.040Z,18.67
2022-12-17T14:34:49.281Z,18.87
2022-12-17T14:35:52.991Z,19.33
2022-12-17T14:37:00.848Z,17.93
2022-12-17T14:38:04.990Z,18.10
2022-12-17T14:39:31.162Z,18.40
2022-12-17T14:40:33.463Z,17.70
2022-12-17T14:41:56.838Z,17.37
2022-12-17T14:43:03.186Z,17.20
2022-12-17T14:44:06.277Z,18.17
2022-12-17T14:45:28.184Z,18.43
2022-12-17T14:46:34.944Z,17.10
2022-12-17T14:47:37.918Z,18.00
2022-12-17T14:49:02.029Z,16.90
2022-12-17T14:50:34.800Z,16.50
2022-12-17T14:51:40.539Z,18.20
2022-12-17T14:52:45.662Z,18.20
2022-12-17T14:53:51.016Z,18.03
2022-12-17T14:54:53.253Z,16.87
2022-12-17T14:55:59.987Z,17.03
2022-12-17T14:57:05.728Z,18.00
2022-12-17T14:58:14.939Z,17.13
2022-12-17T14:59:38.972Z,16.33
2022-12-17T15:00:46.381Z,17.63
2022-12-17T15:01:54.179Z,16.80
2022-12-17T15:02:58.348Z,16.87
2022-12-17T15:04:03.057Z,17.20
2022-12-17T15:05:05.777Z,17.37
2022-12-17T15:06:13.276Z,17.20
2022-12-17T15:07:21.979Z,16.93
2022-12-17T15:08:25.088Z,16.57
2022-12-17T15:09:29.351Z,16.97
2022-12-17T15:10:31.801Z,17.60
2022-12-17T15:11:34.015Z,17.73
2022-12-17T15:12:36.246Z,17.53
2022-12-17T15:13:38.584Z,17.53
2022-12-17T15:14:40.810Z,17.77
2022-12-17T15:15:43.127Z,17.53
2022-12-17T15:16:46.360Z,17.20
2022-12-17T15:17:48.918Z,17.37
2022-12-17T15:18:51.280Z,17.03
2022-12-17T15:19:56.113Z,16.23
2022-12-17T15:21:02.983Z,17.13
2022-12-17T15:22:07.787Z,17.03
2022-12-17T15:23:16.762Z,17.07
2022-12-17T15:24:21.113Z,15.90
2022-12-17T15:25:23.351Z,16.27
2022-12-17T15:26:29.610Z,16.07
2022-12-17T15:27:32.006Z,16.13
2022-12-17T15:28:34.522Z,16.03
2022-12-17T15:29:37.339Z,16.83
2022-12-17T15:30:40.308Z,15.70
2022-12-17T15:31:42.704Z,16.50
2022-12-17T15:32:45.927Z,15.60
2022-12-17T15:33:48.169Z,16.50
2022-12-17T15:34:53.337Z,16.27
2022-12-17T15:35:55.602Z,16.33
2022-12-17T15:36:57.811Z,15.47
2022-12-17T15:38:00.116Z,15.50
2022-12-17T15:39:02.410Z,16.43
2022-12-17T15:40:13.890Z,16.00
2022-12-17T15:41:34.743Z,14.57
2022-12-17T15:42:55.614Z,14.00
2022-12-17T15:44:00.369Z,15.13
2022-12-17T15:45:02.635Z,14.80
2022-12-17T15:46:09.625Z,14.10
2022-12-17T15:47:11.880Z,15.07
2022-12-17T15:48:17.243Z,14.23
2022-12-17T15:49:19.502Z,14.47
2022-12-17T15:50:22.018Z,14.93
2022-12-17T15:51:29.811Z,15.13
2022-12-17T15:52:33.033Z,14.20
2022-12-17T15:53:35.895Z,13.27
2022-12-17T15:54:38.295Z,14.57
2022-12-17T15:55:40.791Z,14.37
2022-12-17T15:56:53.650Z,13.70
2022-12-17T15:57:55.974Z,14.90
2022-12-17T15:58:59.240Z,15.10
2022-12-17T16:00:01.556Z,15.23
2022-12-17T16:01:06.224Z,14.93
2022-12-17T16:02:10.747Z,15.30
2022-12-17T16:03:13.104Z,14.63
2022-12-17T16:04:21.551Z,14.30
2022-12-17T16:05:26.961Z,15.17
2022-12-17T16:06:29.192Z,15.40
2022-12-17T16:07:33.785Z,14.70
2022-12-17T16:08:39.179Z,14.43
2022-12-17T16:09:41.659Z,14.53
2022-12-17T16:10:43.998Z,14.77
2022-12-17T16:11:46.280Z,14.90
2022-12-17T16:12:48.549Z,14.63
2022-12-17T16:13:55.201Z,15.10
2022-12-17T16:15:02.061Z,14.50
2022-12-17T16:16:08.033Z,14.77
2022-12-17T16:17:11.244Z,13.77
2022-12-17T16:18:13.517Z,14.00
2022-12-17T16:19:15.781Z,13.87
2022-12-17T16:20:17.991Z,13.37
2022-12-17T16:21:20.184Z,13.37
2022-12-17T16:22:22.393Z,13.83
2022-12-17T16:23:24.576Z,12.77
2022-12-17T16:24:26.786Z,12.87
2022-12-17T16:25:29.081Z,12.27
2022-12-17T16:26:31.767Z,11.83
2022-12-17T16:27:34.022Z,12.50
2022-12-17T16:28:43.304Z,11.50
2022-12-17T16:29:48.243Z,12.10
2022-12-17T16:31:11.731Z,12.03
2022-12-17T16:32:15.273Z,11.57
2022-12-17T16:33:17.465Z,10.93
2022-12-17T16:34:22.704Z,12.07
2022-12-17T16:35:25.219Z,11.93
2022-12-17T16:36:28.447Z,11.50
2022-12-17T16:37:30.783Z,11.67
2022-12-17T16:38:33.596Z,11.30
2022-12-17T16:39:35.870Z,11.47
2022-12-17T16:40:38.123Z,10.87
2022-12-17T16:41:41.243Z,11.30
2022-12-17T16:42:46.594Z,11.37
2022-12-17T16:43:49.169Z,12.07
2022-12-17T16:44:51.400Z,10.63
2022-12-17T16:45:54.739Z,12.00
2022-12-17T16:46:57.137Z,11.70
2022-12-17T16:48:02.115Z,11.97
2022-12-17T16:49:30.710Z,11.97
2022-12-17T16:50:32.955Z,11.67
2022-12-17T16:51:35.238Z,12.37
2022-12-17T16:52:37.423Z,11.90
2022-12-17T16:53:39.654Z,11.63
2022-12-17T16:54:41.909Z,12.17
2022-12-17T16:55:46.227Z,11.87
2022-12-17T16:56:49.221Z,11.77
2022-12-17T16:57:51.416Z,11.87
2022-12-17T16:58:54.765Z,12.53
2022-12-17T16:59:57.065Z,12.20
2022-12-17T17:01:02.040Z,11.97
2022-12-17T17:02:05.913Z,12.17
2022-12-17T17:03:11.104Z,11.90
2022-12-17T17:04:15.298Z,13.03
2022-12-17T17:05:17.569Z,12.23
2022-12-17T17:06:20.711Z,11.93
2022-12-17T17:07:25.336Z,12.60
2022-12-17T17:08:27.578Z,12.63
2022-12-17T17:09:29.874Z,12.70
2022-12-17T17:10:36.939Z,12.07
2022-12-17T17:11:43.933Z,11.13
2022-12-17T17:12:52.061Z,11.73
2022-12-17T17:13:55.250Z,11.53
2022-12-17T17:14:57.429Z,11.93
2022-12-17T17:15:59.947Z,11.30
2022-12-17T17:17:02.188Z,10.50